Time;durP1;ratioP1;P1;durP2;ratioP2;P2;SDS_P1;SDS_P2;PMS_P1;PMS_P2;Temp;Humidity;BMP_temperature;BMP_pressure;BME280_temperature;BME280_humidity;BME280_pressure;Samples;Min_cycle;Max_cycle;Signal;HPM_P1;HPM_P2
2022/02/27 00:00:34;;;;;;;50.20;19.53;;;;;;;-142.75;100.00;79977.19;5029581;28;20406;-67
2022/02/27 00:02:59;;;;;;;51.63;18.27;;;;;;;-142.75;100.00;79979.16;5029277;28;20268;-66
2022/02/27 00:05:24;;;;;;;55.35;20.08;;;;;;;-142.75;100.00;79967.34;5028087;28;20494;-67
2022/02/27 00:07:49;;;;;;;42.08;18.90;;;;;;;-142.75;100.00;79967.34;5028916;28;20048;-66
2022/02/27 00:10:15;;;;;;;57.67;19.57;;;;;;;-142.75;100.00;79971.28;5027850;28;20034;-67
2022/02/27 00:12:40;;;;;;;55.40;19.48;;;;;;;-142.75;100.00;79963.41;5028887;28;20272;-67
2022/02/27 00:15:06;;;;;;;62.30;20.20;;;;;;;-142.75;100.00;79963.41;5029146;28;20055;-67
2022/02/27 00:17:36;;;;;;;52.33;19.70;;;;;;;-142.75;100.00;79971.28;5027362;28;20115;-67
2022/02/27 00:20:01;;;;;;;50.07;19.40;;;;;;;-142.75;100.00;79965.38;5028794;28;20017;-67
2022/02/27 00:22:26;;;;;;;49.10;18.63;;;;;;;-142.75;100.00;79971.28;5028844;28;20116;-67
2022/02/27 00:24:52;;;;;;;51.28;18.13;;;;;;;-142.75;100.00;79969.31;5027296;28;20475;-67
2022/02/27 00:27:17;;;;;;;50.90;17.70;;;;;;;-142.75;100.00;79961.44;5029005;28;20040;-67
2022/02/27 00:29:44;;;;;;;47.47;18.80;;;;;;;-142.75;100.00;79957.50;5028589;28;20718;-67
2022/02/27 00:32:09;;;;;;;47.67;17.73;;;;;;;-142.75;100.00;79965.38;5028719;28;20384;-66
2022/02/27 00:34:34;;;;;;;42.42;17.92;;;;;;;-142.75;100.00;79955.53;5028636;28;20041;-67
2022/02/27 00:37:00;;;;;;;47.35;18.40;;;;;;;-142.75;100.00;79965.38;5028747;28;20031;-66
2022/02/27 00:39:25;;;;;;;47.28;18.60;;;;;;;-142.75;100.00;79969.31;5028564;28;20535;-66
2022/02/27 00:41:51;;;;;;;44.20;17.93;;;;;;;-142.75;100.00;79963.41;5026682;28;20050;-66
2022/02/27 00:44:16;;;;;;;43.45;17.67;;;;;;;-142.75;100.00;79965.38;5028559;28;20100;-67
2022/02/27 00:46:42;;;;;;;45.17;19.00;;;;;;;-142.75;100.00;79965.38;5028470;28;20025;-66
2022/02/27 00:49:07;;;;;;;50.85;17.63;;;;;;;-142.75;100.00;79973.25;5029257;28;20319;-67
2022/02/27 00:51:32;;;;;;;45.97;17.52;;;;;;;-142.75;100.00;79975.22;5028290;28;20033;-67
2022/02/27 00:53:58;;;;;;;37.00;16.63;;;;;;;-142.75;100.00;79973.25;5026961;28;20552;-67
2022/02/27 00:56:23;;;;;;;44.15;17.92;;;;;;;-142.75;100.00;79975.22;5029499;28;20096;-67
2022/02/27 00:58:50;;;;;;;35.28;15.38;;;;;;;-142.75;100.00;79969.31;5028003;28;20025;-66
2022/02/27 01:01:17;;;;;;;46.87;18.50;;;;;;;-142.75;100.00;79971.28;5029374;28;20036;-67
2022/02/27 01:03:43;;;;;;;38.80;14.83;;;;;;;-142.75;100.00;79977.19;5028098;28;20112;-66
2022/02/27 01:06:08;;;;;;;52.83;17.05;;;;;;;-142.75;100.00;79973.25;5029570;28;20101;-67
2022/02/27 01:08:33;;;;;;;39.00;15.80;;;;;;;-142.75;100.00;79977.19;5029574;28;20442;-67
2022/02/27 01:10:59;;;;;;;50.20;17.10;;;;;;;-142.75;100.00;79977.19;5031065;28;20270;-67
2022/02/27 01:13:25;;;;;;;43.42;15.80;;;;;;;-142.75;100.00;79981.16;5030133;28;20280;-68
2022/02/27 01:15:50;;;;;;;42.72;15.80;;;;;;;-142.75;100.00;79977.19;5031566;28;20092;-67
2022/02/27 01:18:15;;;;;;;42.97;15.38;;;;;;;-142.75;100.00;79973.25;5030608;28;20021;-69
2022/02/27 01:20:41;;;;;;;38.10;15.27;;;;;;;-142.75;100.00;79973.25;5029764;28;20021;-66
2022/02/27 01:23:06;;;;;;;44.55;15.75;;;;;;;-142.75;100.00;79969.31;5029348;28;20497;-66
2022/02/27 01:25:31;;;;;;;39.08;14.93;;;;;;;-142.75;100.00;79977.19;5029686;28;20029;-67
2022/02/27 01:27:56;;;;;;;38.88;15.38;;;;;;;-142.75;100.00;79977.19;5029170;28;20028;-67
2022/02/27 01:30:22;;;;;;;48.13;16.08;;;;;;;-142.75;100.00;79989.03;5031649;28;20108;-67
2022/02/27 01:32:47;;;;;;;38.78;14.43;;;;;;;-142.75;100.00;79992.97;5033427;28;20109;-67
2022/02/27 01:35:13;;;;;;;44.13;15.23;;;;;;;-142.75;100.00;79994.94;5034368;28;20475;-67
2022/02/27 01:37:38;;;;;;;46.65;15.35;;;;;;;-142.75;100.00;79994.94;5034708;28;20052;-68
2022/02/27 01:40:04;;;;;;;41.75;15.35;;;;;;;-142.75;100.00;79994.94;5032828;28;20025;-67
2022/02/27 01:42:30;;;;;;;40.47;15.27;;;;;;;-142.75;100.00;79996.91;5034225;28;20033;-66
2022/02/27 01:44:55;;;;;;;40.60;14.77;;;;;;;-142.75;100.00;80006.75;5034118;28;20025;-67
2022/02/27 01:47:22;;;;;;;41.65;15.50;;;;;;;-142.75;100.00;80004.78;5034091;28;20446;-66
2022/02/27 01:49:48;;;;;;;38.80;14.50;;;;;;;-142.75;100.00;80000.84;5033815;28;20068;-67
2022/02/27 01:52:14;;;;;;;38.20;13.77;;;;;;;-142.75;100.00;80002.81;5034205;28;20025;-67
2022/02/27 01:54:40;;;;;;;36.07;13.87;;;;;;;-142.75;100.00;79996.91;5033998;28;20033;-67
2022/02/27 01:57:05;;;;;;;32.42;13.95;;;;;;;-142.75;100.00;79994.94;5032832;28;20120;-67
2022/02/27 01:59:31;;;;;;;42.15;15.00;;;;;;;-142.75;100.00;80000.84;5033364;28;20021;-68
2022/02/27 02:01:56;;;;;;;33.22;13.48;;;;;;;-142.75;100.00;79987.06;5033844;28;20136;-68
2022/02/27 02:04:22;;;;;;;33.50;13.57;;;;;;;-142.75;100.00;79994.94;5032490;28;20033;-68
2022/02/27 02:06:47;;;;;;;39.10;14.10;;;;;;;-142.75;100.00;80000.84;5032492;28;20274;-67
2022/02/27 02:09:12;;;;;;;30.30;13.50;;;;;;;-142.75;100.00;79998.88;5033549;28;20394;-67
2022/02/27 02:11:38;;;;;;;35.22;14.30;;;;;;;-142.75;100.00;79996.91;5033698;28;20037;-68
2022/02/27 02:14:05;;;;;;;36.22;13.88;;;;;;;-142.75;100.00;79998.88;5033509;28;20033;-68
2022/02/27 02:16:47;;;;;;;34.37;13.10;;;;;;;-142.75;100.00;79998.88;5032422;28;20044;-67
2022/02/27 02:19:14;;;;;;;31.77;12.30;;;;;;;-142.75;100.00;79998.88;5033433;28;20033;-67
2022/02/27 02:21:44;;;;;;;32.97;12.27;;;;;;;-142.75;100.00;79994.94;5033745;28;20498;-67
2022/02/27 02:24:10;;;;;;;39.57;13.63;;;;;;;-142.75;100.00;79994.94;5063977;22;20041;-68
2022/02/27 02:26:37;;;;;;;38.22;13.68;;;;;;;-142.75;100.00;79989.03;5051384;28;20086;-68
2022/02/27 02:29:05;;;;;;;32.87;13.37;;;;;;;-142.75;100.00;79998.88;5052713;28;20024;-69
2022/02/27 02:31:30;;;;;;;34.70;13.10;;;;;;;-142.75;100.00;79996.91;5051892;28;20029;-69
2022/02/27 02:33:56;;;;;;;29.65;12.20;;;;;;;-142.75;100.00;79987.06;5053063;28;20048;-69
2022/02/27 02:36:21;;;;;;;30.42;12.10;;;;;;;-142.75;100.00;79975.22;5053141;28;20024;-69
2022/02/27 02:38:46;;;;;;;36.85;11.85;;;;;;;-142.75;100.00;79973.25;5052131;28;20112;-69
2022/02/27 02:41:12;;;;;;;32.17;11.63;;;;;;;-142.75;100.00;79975.22;5052559;28;20035;-69
2022/02/27 02:43:37;;;;;;;33.07;12.43;;;;;;;-142.75;100.00;79983.13;5052979;28;20104;-68
2022/02/27 02:46:02;;;;;;;30.45;12.60;;;;;;;-142.75;100.00;79983.13;5052932;28;20032;-68
2022/02/27 02:48:27;;;;;;;30.02;11.27;;;;;;;-142.75;100.00;79992.97;5051268;28;20029;-69
2022/02/27 02:50:53;;;;;;;26.25;10.80;;;;;;;-142.75;100.00;79994.94;5052916;28;20048;-69
2022/02/27 02:53:18;;;;;;;29.60;11.50;;;;;;;-142.75;100.00;79998.88;5051327;28;20063;-69
2022/02/27 02:55:43;;;;;;;32.22;11.60;;;;;;;-142.75;100.00;80004.78;5051481;28;20290;-69
2022/02/27 02:58:08;;;;;;;30.92;10.63;;;;;;;-142.75;100.00;79996.91;5052454;28;20050;-69
2022/02/27 03:00:34;;;;;;;28.45;10.38;;;;;;;-142.75;100.00;79992.97;5052726;28;20107;-69
2022/02/27 03:03:00;;;;;;;27.70;10.50;;;;;;;-142.75;100.00;79994.94;5052596;28;20039;-69
2022/02/27 03:05:25;;;;;;;25.95;10.80;;;;;;;-142.75;100.00;79998.88;5052591;28;20025;-69
2022/02/27 03:07:50;;;;;;;31.42;10.95;;;;;;;-142.75;100.00;80006.75;5052307;28;20106;-67
2022/02/27 03:10:16;;;;;;;28.90;10.77;;;;;;;-142.75;100.00;80012.66;5052428;28;20107;-69
2022/02/27 03:12:41;;;;;;;30.07;10.73;;;;;;;-142.75;100.00;80010.69;5051271;28;20282;-68
2022/02/27 03:15:08;;;;;;;30.02;10.75;;;;;;;-142.75;100.00;80016.59;5052331;28;20291;-68
2022/02/27 03:17:33;;;;;;;27.23;10.30;;;;;;;-142.75;100.00;80014.63;5052404;28;20055;-69
2022/02/27 03:19:59;;;;;;;28.83;10.98;;;;;;;-142.75;100.00;80020.53;5052038;28;20021;-68
2022/02/27 03:22:25;;;;;;;25.30;10.57;;;;;;;-142.75;100.00;80020.53;5052338;28;20494;-68
2022/02/27 03:24:50;;;;;;;23.98;10.20;;;;;;;-142.75;100.00;80028.44;5050740;28;20375;-68
2022/02/27 03:27:15;;;;;;;25.43;9.87;;;;;;;-142.75;100.00;80020.53;5052228;28;20025;-68
2022/02/27 03:29:40;;;;;;;26.40;9.73;;;;;;;-142.75;100.00;80024.50;5050665;28;20297;-69
2022/02/27 03:32:07;;;;;;;22.93;10.03;;;;;;;-142.75;100.00;80032.38;5052089;28;20274;-69
2022/02/27 03:34:32;;;;;;;;;;;;;;;-142.75;100.00;80034.34;5051000;28;20333;-69
2022/02/27 03:36:57;;;;;;;24.23;10.23;;;;;;;-142.75;100.00;80032.38;5051982;28;19917;-68
2022/02/27 03:39:23;;;;;;;24.00;9.38;;;;;;;-142.75;100.00;80016.59;5051726;28;20029;-67
2022/02/27 03:41:48;;;;;;;36.85;10.50;;;;;;;-142.75;100.00;80024.50;5051833;28;20031;-69
2022/02/27 03:44:13;;;;;;;25.80;9.55;;;;;;;-142.75;100.00;80022.50;5051839;28;20035;-69
2022/02/27 03:46:39;;;;;;;26.33;10.05;;;;;;;-142.75;100.00;80024.50;5051826;28;20034;-69
2022/02/27 03:49:05;;;;;;;17.55;8.38;;;;;;;-142.75;100.00;80032.38;5050097;28;20024;-69
2022/02/27 03:51:35;;;;;;;21.90;8.60;;;;;;;-142.75;100.00;80026.47;5050374;28;20047;-69
2022/02/27 03:54:02;;;;;;;21.20;9.23;;;;;;;-142.75;100.00;80034.34;5049598;28;20017;-69
2022/02/27 03:56:27;;;;;;;22.43;9.30;;;;;;;-142.75;100.00;80024.50;5051580;28;20028;-69
2022/02/27 03:58:53;;;;;;;24.08;8.57;;;;;;;-142.75;100.00;80030.41;5050307;28;20017;-68
2022/02/27 04:01:18;;;;;;;21.77;8.50;;;;;;;-142.75;100.00;80030.41;5051511;28;20020;-69
2022/02/27 04:03:44;;;;;;;24.67;8.48;;;;;;;-142.75;100.00;80032.38;5051550;28;20667;-69
2022/02/27 04:06:11;;;;;;;21.20;8.40;;;;;;;-142.75;100.00;80032.38;5051695;28;20078;-68
2022/02/27 04:08:36;;;;;;;23.10;9.00;;;;;;;-142.75;100.00;80030.41;5051390;28;20038;-68
2022/02/27 04:11:01;;;;;;;16.73;8.00;;;;;;;-142.75;100.00;80034.34;5051461;28;20035;-69
2022/02/27 04:13:27;;;;;;;19.40;7.63;;;;;;;-142.75;100.00;80030.41;5051397;28;20025;-71
2022/02/27 04:15:52;;;;;;;19.40;8.93;;;;;;;-142.75;100.00;80036.31;5051449;28;20699;-69
2022/02/27 04:18:17;;;;;;;22.05;8.70;;;;;;;-142.75;100.00;80032.38;5051000;28;20029;-68
2022/02/27 04:20:42;;;;;;;18.87;8.00;;;;;;;-142.75;100.00;80032.38;5051274;28;20404;-68
2022/02/27 04:23:10;;;;;;;19.37;8.97;;;;;;;-142.75;100.00;80024.50;5051256;28;20272;-68
2022/02/27 04:25:36;;;;;;;27.53;8.10;;;;;;;-142.75;100.00;80024.50;5050192;28;20275;-69
2022/02/27 04:28:01;;;;;;;21.15;8.38;;;;;;;-142.75;100.00;80032.38;5051280;28;20047;-68
2022/02/27 04:30:26;;;;;;;23.52;8.50;;;;;;;-142.75;100.00;80018.56;5049847;28;20116;-68
2022/02/27 04:32:52;;;;;;;18.27;7.80;;;;;;;-142.75;100.00;80020.53;5051005;28;20024;-67
2022/02/27 04:35:17;;;;;;;19.38;8.40;;;;;;;-142.75;100.00;80028.44;5050924;28;20037;-69
2022/02/27 04:37:43;;;;;;;24.40;8.38;;;;;;;-142.75;100.00;80036.31;5050944;28;20106;-69
2022/02/27 04:40:08;;;;;;;16.57;8.50;;;;;;;-142.75;100.00;80048.13;5050641;28;20435;-68
2022/02/27 04:42:34;;;;;;;22.90;8.27;;;;;;;-142.75;100.00;80034.34;5050950;28;20279;-68
2022/02/27 04:44:59;;;;;;;20.80;7.95;;;;;;;-142.75;100.00;80032.38;5050670;28;20051;-69
2022/02/27 04:47:25;;;;;;;17.08;8.20;;;;;;;-142.75;100.00;80036.31;5050774;28;20033;-69
2022/02/27 04:49:50;;;;;;;19.10;8.13;;;;;;;-142.75;100.00;80040.25;5050455;28;20096;-68
2022/02/27 04:52:16;;;;;;;19.20;8.15;;;;;;;-142.75;100.00;80040.25;5050775;28;20113;-69
2022/02/27 04:54:43;;;;;;;18.10;7.45;;;;;;;-142.75;100.00;80040.25;5049200;28;20025;-68
2022/02/27 04:57:08;;;;;;;19.33;7.73;;;;;;;-142.75;100.00;80046.16;5050721;28;20052;-69
2022/02/27 04:59:33;;;;;;;26.50;8.40;;;;;;;-142.75;100.00;80048.13;5050300;28;20060;-69
2022/02/27 05:01:59;;;;;;;15.18;7.45;;;;;;;-142.75;100.00;80052.06;5050652;28;20056;-69
2022/02/27 05:04:24;;;;;;;22.13;7.65;;;;;;;-142.75;100.00;80052.06;5049187;28;20376;-69
2022/02/27 05:06:49;;;;;;;22.13;7.90;;;;;;;-142.75;100.00;80056.00;5050679;28;20028;-68
2022/02/27 05:09:17;;;;;;;19.50;7.32;;;;;;;-142.75;100.00;80054.03;5050332;28;20036;-69
2022/02/27 05:11:44;;;;;;;20.17;7.70;;;;;;;-142.75;100.00;80044.19;5050521;28;20033;-68
2022/02/27 05:14:11;;;;;;;18.10;8.30;;;;;;;-142.75;100.00;80046.16;5050316;28;20091;-69
2022/02/27 05:16:36;;;;;;;19.23;7.10;;;;;;;-142.75;100.00;80052.06;5050441;28;20398;-69
2022/02/27 05:19:01;;;;;;;18.90;7.47;;;;;;;-142.75;100.00;80056.00;5050194;28;20025;-69
2022/02/27 05:21:26;;;;;;;20.50;8.55;;;;;;;-142.75;100.00;80052.06;5050490;28;20028;-69
2022/02/27 05:23:52;;;;;;;18.25;8.82;;;;;;;-142.75;100.00;80054.03;5048880;28;20499;-68
2022/02/27 05:26:17;;;;;;;20.42;7.57;;;;;;;-142.75;100.00;80038.28;5050395;28;20029;-68
2022/02/27 05:28:44;;;;;;;18.70;7.18;;;;;;;-142.75;100.00;80044.19;5050141;28;20024;-68
2022/02/27 05:31:09;;;;;;;21.13;7.87;;;;;;;-142.75;100.00;80044.19;5050190;28;20028;-69
2022/02/27 05:33:34;;;;;;;18.88;7.63;;;;;;;-142.75;100.00;80040.25;5050202;28;20506;-68
2022/02/27 05:35:59;;;;;;;22.90;7.82;;;;;;;-142.75;100.00;80044.19;5050280;28;20053;-69
2022/02/27 05:38:25;;;;;;;15.93;7.00;;;;;;;-142.75;100.00;80044.19;5050014;28;20025;-69
2022/02/27 05:40:50;;;;;;;15.55;7.50;;;;;;;-142.75;100.00;80034.34;5050269;28;20103;-68
2022/02/27 05:43:15;;;;;;;19.35;7.63;;;;;;;-142.75;100.00;80048.13;5050126;28;20376;-69
2022/02/27 05:45:41;;;;;;;28.27;7.85;;;;;;;-142.75;100.00;80044.19;5050163;28;20025;-68
2022/02/27 05:48:06;;;;;;;14.63;8.00;;;;;;;-142.75;100.00;80050.09;5050149;28;20032;-68
2022/02/27 05:50:32;;;;;;;18.50;7.32;;;;;;;-142.75;100.00;80050.09;5050224;28;20272;-68
2022/02/27 05:52:57;;;;;;;14.85;7.32;;;;;;;-142.75;100.00;80056.00;5048733;28;20104;-69
2022/02/27 05:55:22;;;;;;;16.13;7.18;;;;;;;-142.75;100.00;80048.13;5049952;28;20483;-68
2022/02/27 05:57:47;;;;;;;17.85;7.50;;;;;;;-142.75;100.00;80048.13;5048651;28;20028;-66
2022/02/27 06:00:13;;;;;;;24.17;9.30;;;;;;;-142.75;100.00;80056.00;5049887;28;20095;-69
2022/02/27 06:02:39;;;;;;;17.13;8.25;;;;;;;-142.75;100.00;80048.13;5048838;28;20032;-69
2022/02/27 06:05:05;;;;;;;17.58;6.88;;;;;;;-142.75;100.00;80056.00;5049934;28;20013;-68
2022/02/27 06:07:31;;;;;;;17.00;7.60;;;;;;;-142.75;100.00;80050.09;5049863;28;20033;-69
2022/02/27 06:09:56;;;;;;;19.13;8.40;;;;;;;-142.75;100.00;80059.94;5049722;28;20029;-68
2022/02/27 06:12:21;;;;;;;13.32;6.97;;;;;;;-142.75;100.00;80059.94;5049975;28;20024;-68
2022/02/27 06:14:46;;;;;;;13.82;7.22;;;;;;;-142.75;100.00;80057.97;5048439;28;20035;-68
2022/02/27 06:17:12;;;;;;;18.60;7.87;;;;;;;-142.75;100.00;80059.94;5052985;28;20025;-69
2022/02/27 06:19:37;;;;;;;18.42;7.38;;;;;;;-142.75;100.00;80067.84;5051973;28;20275;-69
2022/02/27 06:22:02;;;;;;;15.10;7.35;;;;;;;-142.75;100.00;80063.88;5053357;28;20021;-69
2022/02/27 06:24:28;;;;;;;14.68;7.63;;;;;;;-142.75;100.00;80071.78;5053248;28;20025;-68
2022/02/27 06:26:54;;;;;;;20.95;7.07;;;;;;;-142.75;100.00;80071.78;5052127;28;20021;-69
2022/02/27 06:29:19;;;;;;;17.30;6.88;;;;;;;-142.75;100.00;80067.84;5052917;28;20036;-68
2022/02/27 06:31:45;;;;;;;18.27;7.15;;;;;;;-142.75;100.00;80079.66;5051915;28;20028;-68
2022/02/27 06:34:12;;;;;;;18.73;7.00;;;;;;;-142.75;100.00;80073.75;5051897;28;20029;-68
2022/02/27 06:36:37;;;;;;;18.53;7.90;;;;;;;-142.75;100.00;80075.72;5051824;28;20784;-68
2022/02/27 06:39:03;;;;;;;18.60;7.80;;;;;;;-142.75;100.00;80079.66;5052862;28;20132;-69
2022/02/27 06:41:28;;;;;;;19.65;7.47;;;;;;;-142.75;100.00;80073.75;5051874;28;20410;-68
2022/02/27 06:43:53;;;;;;;22.55;8.23;;;;;;;-142.75;100.00;80067.84;5051614;28;20104;-69
2022/02/27 06:46:19;;;;;;;16.52;6.82;;;;;;;-142.75;100.00;80057.97;5053001;28;20415;-68
2022/02/27 06:48:44;;;;;;;18.00;7.40;;;;;;;-142.75;100.00;80054.03;5051291;28;20116;-68
2022/02/27 06:51:09;;;;;;;17.08;6.93;;;;;;;-142.75;100.00;80044.19;5052848;28;20028;-68
2022/02/27 06:53:35;;;;;;;22.88;6.93;;;;;;;-142.75;100.00;80026.47;5052734;28;20029;-67
2022/02/27 06:56:00;;;;;;;15.95;7.85;;;;;;;-142.75;100.00;80016.59;5051477;28;20029;-69
2022/02/27 06:58:26;;;;;;;18.77;6.80;;;;;;;-142.75;100.00;80000.84;5051201;28;20040;-68
2022/02/27 07:00:52;;;;;;;18.30;6.50;;;;;;;-142.75;100.00;79992.97;5052766;28;20028;-68
2022/02/27 07:03:17;;;;;;;20.65;7.18;;;;;;;-142.75;100.00;79979.16;5052697;28;20482;-68
2022/02/27 07:05:43;;;;;;;16.63;7.50;;;;;;;-142.75;100.00;79959.47;5052555;28;20211;-68
2022/02/27 07:08:08;;;;;;;15.70;5.97;;;;;;;-142.75;100.00;79947.66;5051127;28;20028;-69
2022/02/27 07:10:34;;;;;;;11.43;6.32;;;;;;;-142.75;100.00;79941.75;5051240;28;20399;-68
2022/02/27 07:12:59;;;;;;;13.70;6.60;;;;;;;-142.75;100.00;79925.97;5051188;28;20040;-67
2022/02/27 07:15:24;;;;;;;19.13;6.68;;;;;;;-142.75;100.00;79910.22;5052112;28;20029;-68
2022/02/27 07:17:49;;;;;;;17.67;6.10;;;;;;;-142.75;100.00;79902.34;5050981;28;20055;-69
2022/02/27 07:20:15;;;;;;;16.50;6.15;;;;;;;-142.75;100.00;79882.63;5050995;28;20112;-67
2022/02/27 07:22:40;;;;;;;13.38;5.57;;;;;;;-142.75;100.00;79862.94;5052379;28;20029;-68
2022/02/27 07:25:07;;;;;;;15.85;5.88;;;;;;;-142.75;100.00;79835.34;5050851;28;20017;-68
2022/02/27 07:27:34;;;;;;;17.33;5.90;;;;;;;-142.75;100.00;79823.53;5050922;28;20032;-68
2022/02/27 07:30:00;;;;;;;17.83;6.00;;;;;;;-142.75;100.00;79811.72;5051958;28;20035;-68
2022/02/27 07:32:26;;;;;;;14.97;6.13;;;;;;;-142.75;100.00;79788.06;5052326;28;20028;-68
2022/02/27 07:34:51;;;;;;;29.20;13.52;;;;;;;-142.75;100.00;79762.47;5051950;28;20032;-68
2022/02/27 07:37:16;;;;;;;13.52;6.43;;;;;;;-142.75;100.00;79750.66;5052002;28;20035;-68
2022/02/27 07:39:42;;;;;;;18.35;7.07;;;;;;;-142.75;100.00;79732.91;5051670;28;20087;-68
2022/02/27 07:42:07;;;;;;;28.05;14.30;;;;;;;-142.75;100.00;79713.22;5051838;28;20017;-68
2022/02/27 07:44:33;;;;;;;23.05;10.15;;;;;;;-142.75;100.00;79695.47;5050546;28;20021;-68
2022/02/27 07:46:59;;;;;;;14.07;5.78;;;;;;;-142.75;100.00;79677.75;5051825;28;20029;-68
2022/02/27 07:49:24;;;;;;;18.70;8.02;;;;;;;-142.75;100.00;79634.41;5050252;28;20075;-68
2022/02/27 07:51:49;;;;;;;16.52;7.72;;;;;;;-142.75;100.00;79612.75;5051820;28;20029;-68
2022/02/27 07:54:15;;;;;;;16.05;5.25;;;;;;;-142.75;100.00;79583.19;5051477;28;20020;-68
2022/02/27 07:56:40;;;;;;;16.02;6.00;;;;;;;-142.75;100.00;79571.38;5051731;28;20032;-69
2022/02/27 07:59:05;;;;;;;11.50;5.20;;;;;;;-142.75;100.00;79559.56;5050223;28;20028;-68
2022/02/27 08:01:33;;;;;;;15.02;6.05;;;;;;;-142.75;100.00;79549.69;5051603;28;20068;-69
2022/02/27 08:03:58;;;;;;;17.03;5.97;;;;;;;-142.75;100.00;79518.19;5050106;28;20036;-68
2022/02/27 08:06:24;;;;;;;11.52;4.35;;;;;;;-142.75;100.00;79504.41;5051418;28;20025;-68
2022/02/27 08:08:50;;;;;;;12.75;4.53;;;;;;;-142.75;100.00;79488.63;5051037;28;20112;-68
2022/02/27 08:11:16;;;;;;;13.82;5.10;;;;;;;-142.75;100.00;79465.00;5051375;28;20021;-68
2022/02/27 08:13:41;;;;;;;13.43;6.57;;;;;;;-142.75;100.00;79457.13;5050892;28;20032;-68
2022/02/27 08:16:07;;;;;;;15.80;5.80;;;;;;;-142.75;100.00;79433.47;5051305;28;20040;-67
2022/02/27 08:18:33;;;;;;;18.33;8.53;;;;;;;-142.75;100.00;79421.66;5050934;28;20028;-68
2022/02/27 08:20:59;;;;;;;12.70;6.37;;;;;;;-142.75;100.00;79398.03;5051297;28;20383;-69
2022/02/27 08:23:25;;;;;;;19.95;5.68;;;;;;;-142.75;100.00;79384.22;5049655;28;20025;-69
2022/02/27 08:25:54;;;;;;;11.47;4.27;;;;;;;-142.75;100.00;79374.38;5057012;22;20037;-67
2022/02/27 08:28:22;;;;;;;12.40;4.73;;;;;;;-142.75;100.00;79352.72;5029282;28;20029;-67
2022/02/27 08:30:47;;;;;;;12.80;4.47;;;;;;;-142.75;100.00;79325.13;5031159;28;20079;-66
2022/02/27 08:33:14;;;;;;;9.50;4.03;;;;;;;-142.75;100.00;79293.63;5031012;28;20025;-67
2022/02/27 08:35:39;;;;;;;;;;;;;;;-142.75;100.00;79279.84;5031482;28;20055;-67
2022/02/27 08:38:04;;;;;;;11.70;4.27;;;;;;;-142.75;100.00;79262.09;5030423;28;19913;-67
2022/02/27 08:40:30;;;;;;;13.25;5.30;;;;;;;-142.75;100.00;79226.66;5030481;28;20032;-67
2022/02/27 08:42:58;;;;;;;13.57;4.30;;;;;;;-142.75;100.00;79224.69;5030871;28;20025;-67
2022/02/27 08:45:25;;;;;;;8.23;3.73;;;;;;;-142.75;100.00;79279.84;5013129;28;20021;-67
2022/02/27 08:47:51;;;;;;;;;;;;;;;-142.75;100.00;79248.31;5013400;28;20120;-68
2022/02/27 08:50:17;;;;;;;15.07;4.17;;;;;;;-142.75;100.00;79258.16;5013112;28;20326;-67
2022/02/27 08:52:42;;;;;;;15.45;4.47;;;;;;;-142.75;100.00;79246.34;5030896;28;20104;-67
2022/02/27 08:55:09;;;;;;;15.60;3.95;;;;;;;-142.75;100.00;79208.91;5030668;28;20032;-67
2022/02/27 08:57:34;;;;;;;11.00;4.07;;;;;;;-142.75;100.00;79224.69;5030643;28;20035;-67
2022/02/27 09:00:00;;;;;;;13.35;4.63;;;;;;;-142.75;100.00;79201.03;5012855;28;20021;-67
2022/02/27 09:02:25;;;;;;;10.25;3.90;;;;;;;-142.75;100.00;79181.34;5012929;28;20112;-67
2022/02/27 09:04:50;;;;;;;9.50;3.42;;;;;;;-142.75;100.00;79130.13;5030674;28;20475;-67
2022/02/27 09:07:17;;;;;;;14.67;3.83;;;;;;;-142.75;100.00;79173.47;5030630;28;20419;-67
2022/02/27 09:09:43;;;;;;;11.10;3.73;;;;;;;-142.75;100.00;79163.63;5012577;28;20800;-67
2022/02/27 09:12:09;;;;;;;8.40;3.45;;;;;;;-142.75;100.00;79173.47;5030074;28;20025;-68
2022/02/27 09:14:36;;;;;;;9.70;4.33;;;;;;;-142.75;100.00;79173.47;5030397;28;20034;-68
2022/02/27 09:17:02;;;;;;;11.67;4.07;;;;;;;-142.75;100.00;79189.22;5029414;28;20033;-68
2022/02/27 09:19:27;;;;;;;9.82;3.78;;;;;;;-142.75;100.00;79159.69;5012673;28;20026;-67
2022/02/27 09:21:52;;;;;;;11.73;3.83;;;;;;;-142.75;100.00;79136.03;5012719;28;20025;-67
2022/02/27 09:24:18;;;;;;;15.40;3.90;;;;;;;-142.75;100.00;79139.97;5030618;28;20025;-67
2022/02/27 09:26:45;;;;;;;11.88;3.63;;;;;;;-142.75;100.00;79134.06;5030858;28;20033;-66
2022/02/27 09:29:13;;;;;;;12.73;3.90;;;;;;;-142.75;100.00;79122.25;5030413;28;20025;-66
2022/02/27 09:31:38;;;;;;;10.07;4.23;;;;;;;-142.75;100.00;79104.53;5013612;28;20017;-66
2022/02/27 09:34:05;;;;;;;11.90;3.97;;;;;;;-142.75;100.00;79126.19;5030798;28;20502;-67
2022/02/27 09:36:30;;;;;;;13.50;4.07;;;;;;;-142.75;100.00;79130.13;5031053;28;20041;-68
2022/02/27 09:38:56;;;;;;;9.50;3.75;;;;;;;-142.75;100.00;79147.84;5030222;28;20092;-67
2022/02/27 09:41:21;;;;;;;9.50;3.57;;;;;;;-142.75;100.00;79132.09;5012706;28;20017;-66
2022/02/27 09:43:54;;;;;;;16.17;3.70;;;;;;;-142.75;100.00;79128.16;5029222;28;20827;-66
2022/02/27 09:46:23;;;;;;;12.50;3.50;;;;;;;-142.75;100.00;79153.75;5029361;28;20099;-67
2022/02/27 09:48:49;;;;;;;8.60;3.40;;;;;;;-142.75;100.00;79118.31;5011318;28;20033;-66
2022/02/27 09:51:16;;;;;;;7.50;3.13;;;;;;;-142.75;100.00;79057.25;5031262;28;20114;-67
2022/02/27 09:53:41;;;;;;;10.27;3.47;;;;;;;-142.75;100.00;79023.75;5032992;28;20071;-67
2022/02/27 09:56:07;;;;;;;7.75;3.60;;;;;;;-142.75;100.00;79029.66;5032878;28;20456;-67
2022/02/27 09:58:32;;;;;;;12.07;3.55;;;;;;;-142.75;100.00;79069.06;5032562;28;20031;-67
2022/02/27 10:00:58;;;;;;;11.50;4.10;;;;;;;-142.75;100.00;79082.84;5032846;28;20036;-67
2022/02/27 10:03:28;;;;;;;8.63;3.25;;;;;;;-142.75;100.00;79035.59;5032952;28;20022;-67
2022/02/27 10:06:00;;;;;;;9.33;3.60;;;;;;;-142.75;100.00;79043.47;5032777;28;20041;-67
2022/02/27 10:08:37;;;;;;;11.10;3.33;;;;;;;-142.75;100.00;79051.34;5032513;28;20127;-67
2022/02/27 10:11:02;;;;;;;11.75;3.47;;;;;;;-142.75;100.00;79023.75;5032803;28;20029;-67
2022/02/27 10:13:42;;;;;;;10.25;3.78;;;;;;;-142.75;100.00;79051.34;5032474;28;20376;-68
2022/02/27 10:16:11;;;;;;;11.20;3.27;;;;;;;-142.75;100.00;79057.25;5032748;28;20565;-67
2022/02/27 10:18:49;;;;;;;10.40;3.20;;;;;;;-142.75;100.00;79004.06;5033331;28;20402;-67
2022/02/27 10:21:26;;;;;;;7.67;3.30;;;;;;;-142.75;100.00;78962.69;5033683;28;20450;-68
2022/02/27 10:24:09;;;;;;;12.50;3.20;;;;;;;-142.75;100.00;78964.69;5033484;28;20030;-68
2022/02/27 10:26:42;;;;;;;7.53;3.70;;;;;;;-142.75;100.00;78950.88;5033535;28;20052;-68
2022/02/27 10:29:12;;;;;;;11.80;3.90;;;;;;;-142.75;100.00;78984.38;5033150;28;20427;-67
2022/02/27 10:31:40;;;;;;;8.47;3.30;;;;;;;-142.75;100.00;78907.56;5033044;28;20060;-68
2022/02/27 10:34:16;;;;;;;9.20;2.93;;;;;;;-142.75;100.00;78933.16;5033145;28;20446;-67
2022/02/27 10:36:55;;;;;;;9.13;3.07;;;;;;;-142.75;100.00;78874.06;5015598;28;20021;-68
2022/02/27 10:39:30;;;;;;;5.50;2.83;;;;;;;-142.75;100.00;78885.88;5032948;28;20022;-69
2022/02/27 10:42:06;;;;;;;10.27;3.63;;;;;;;-142.75;100.00;78803.16;5033180;28;20028;-68
2022/02/27 10:44:32;;;;;;;10.48;3.45;;;;;;;-142.75;100.00;78807.09;5033031;28;20025;-67
2022/02/27 10:47:36;;;;;;;8.93;3.03;;;;;;;-142.75;100.00;78781.50;5032315;28;20541;-68
2022/02/27 10:50:08;;;;;;;8.37;3.00;;;;;;;-142.75;100.00;78740.13;4951480;28;20521;-68
2022/02/27 10:52:34;;;;;;;10.27;3.17;;;;;;;-142.75;100.00;78795.28;4951579;28;20039;-68
2022/02/27 10:55:00;;;;;;;;;;;;;;;-142.75;99.15;78813.00;5004324;28;20043;-68